Nearby METAR Reports

 

KOXC - Oxford/Waterbury, Connecticut, USA
Distance from station: SE 8mi, 12km
Updated: Sun, 19-May-2019 8:51pm EDT
Overcast
Overcast
 Wind from SSW
Wind: SSW 9 mph , 15 km/h
Temperature: 66°F , 19°C
Dew Point: 64°F , 18°C
Humidity: 94%
Barometer: 29.95 inHg , 1014.2 hPa
Clouds: Overcast
Visibility: 10 miles , 16 km
Cloud details: Overcast 500 ft
2019/05/20 00:51 KOXC 200051Z 20008KT 10SM OVC005 19/18 A2995 RMK AO2 SLP152 T01890183
KDXR - Danbury, Connecticut, USA
Distance from station: SW 19mi, 30km
Updated: Sun, 19-May-2019 9:08pm EDT
Mostly cloudy
Mostly cloudy
 Wind from S
Wind: S 7 mph , 11 km/h
Temperature: 68°F , 20°C
Dew Point: 64°F , 18°C
Humidity: 88%
Barometer: 29.94 inHg , 1013.9 hPa
Clouds: Mostly cloudy
Visibility: 9 miles , 14 km
Cloud details: Mostly cloudy 1000 ft
2019/05/20 01:08 KDXR 200108Z 19006KT 9SM BKN010 20/18 A2994 RMK AO2 LTG DSNT W T02000178
 
KMMK - Meriden, Connecticut, USA
Distance from station: E 20mi, 33km
Updated: Sun, 19-May-2019 8:53pm EDT
Overcast
Overcast
 Wind from SSE
Wind: SSE 12 mph , 19 km/h
Temperature: 66°F , 19°C
Dew Point: 63°F , 17°C
Humidity: 88%
Barometer: 29.93 inHg , 1013.5 hPa
Clouds: Overcast
Visibility: 10 miles , 16 km
Cloud details: Overcast 1100 ft
2019/05/20 00:53 KMMK 200053Z AUTO 16010KT 10SM OVC011 19/17 A2993 RMK AO2 SLP135 T01940167
KBDR - Bridgeport, Connecticut, USA
Distance from station: S 27mi, 44km
Updated: Sun, 19-May-2019 8:52pm EDT
Overcast
Overcast
 Wind from SW
Wind: SW 7 mph , 11 km/h, Gust: 17 mph , 28 km/h
Temperature: 66°F , 19°C
Dew Point: 63°F , 17°C
Humidity: 88%
Barometer: 29.93 inHg , 1013.5 hPa
Clouds: Overcast
Visibility: 9 miles , 14 km
Cloud details: Overcast 900 ft
2019/05/20 00:52 KBDR 200052Z 22006G15KT 9SM OVC009 19/17 A2993 RMK AO2 SLP136 T01890167
 
KHVN - New Haven/Tweed, Connecticut, USA
Distance from station: SE 27mi, 44km
Updated: Sun, 19-May-2019 8:53pm EDT
Overcast
Overcast
 Wind from S
Wind: S 5 mph , 7 km/h
Temperature: 66°F , 19°C
Dew Point: 63°F , 17°C
Humidity: 88%
Barometer: 29.95 inHg , 1014.2 hPa
Clouds: Overcast
Visibility: 10 miles , 16 km
Cloud details: Overcast 1100 ft
2019/05/20 00:53 KHVN 200053Z 18004KT 10SM OVC011 19/17 A2995 RMK AO2 SLP141 T01940167
KHFD - Hartford/Brainar, Connecticut, USA
Distance from station: ENE 32mi, 52km
Updated: Sun, 19-May-2019 8:53pm EDT
Overcast
Overcast
 Wind from S
Wind: S 12 mph , 19 km/h, Gust: 17 mph , 28 km/h
Temperature: 70°F , 21°C
Dew Point: 64°F , 18°C
Humidity: 83%
Barometer: 29.92 inHg , 1013.2 hPa
Clouds: Overcast
Visibility: 10 miles , 16 km
Cloud details: Overcast 1300 ft
2019/05/20 00:53 KHFD 200053Z 19010G15KT 10SM OVC013 21/18 A2992 RMK AO2 SLP132 T02060178
 
KPOU - Poughkeepsie, New York, USA
Distance from station: W 35mi, 56km
Updated: Sun, 19-May-2019 8:53pm EDT
Clear
Clear
 Wind from S
Wind: S 8 mph , 13 km/h
Temperature: 73°F , 23°C
Dew Point: 64°F , 18°C
Humidity: 74%
Barometer: 29.87 inHg , 1011.5 hPa
Clouds: Clear
Visibility: 10 miles , 16 km
2019/05/20 00:53 KPOU 200053Z 17007KT 10SM CLR 23/18 A2987 RMK AO2 LTG DSNT W SLP110 T02330183
KBDL - Windsor Locks, Connecticut, USA
Distance from station: NE 38mi, 62km
Updated: Sun, 19-May-2019 8:51pm EDT
Overcast
Overcast
 Wind from S
Wind: S 15 mph , 24 km/h, Gust: 21 mph , 33 km/h
Temperature: 70°F , 21°C
Dew Point: 63°F , 17°C
Humidity: 78%
Barometer: 29.91 inHg , 1012.9 hPa
Clouds: Overcast
Visibility: 10 miles , 16 km
Cloud details: Overcast 1200 ft
2019/05/20 00:51 KBDL 200051Z 18013G18KT 10SM OVC012 21/17 A2991 RMK AO2 SLP129 T02110172
 
KSNC - Chester, Connecticut, USA
Distance from station: ESE 39mi, 63km
Updated: Sun, 19-May-2019 9:15pm EDT
Overcast
Overcast
 Wind from S
Wind: S 8 mph , 13 km/h
Temperature: 64°F , 18°C
Dew Point: 63°F , 17°C
Humidity: 94%
Barometer: 29.97 inHg , 1014.9 hPa
Clouds: Overcast
Visibility: 10 miles , 16 km
Cloud details: Overcast 700 ft
2019/05/20 01:15 KSNC 200115Z AUTO 18007KT 10SM OVC007 18/17 A2997 RMK AO2
KHPN - White Plains, New York, USA
Distance from station: SW 42mi, 67km
Updated: Sun, 19-May-2019 8:56pm EDT
Overcast
Overcast
 Wind from S
Wind: S 8 mph , 13 km/h
Temperature: 66°F , 19°C
Dew Point: 64°F , 18°C
Humidity: 94%
Barometer: 29.92 inHg , 1013.2 hPa
Clouds: Overcast
Visibility: 8 miles , 13 km
Cloud details: Mostly cloudy 500 ft
Overcast 2000 ft
2019/05/20 00:56 KHPN 200056Z 18007KT 8SM BKN005 OVC020 19/18 A2992 RMK AO2 SLP129 T01890178 $
 
KSWF - Newburgh/Stewart, New York, USA
Distance from station: W 45mi, 72km
Updated: Sun, 19-May-2019 9:00pm EDT
Thunderstorm, Light rain, Overcast
Thunderstorm, Light rain, Overcast
 Wind from W
Wind: W 16 mph , 26 km/h, Gust: 28 mph , 44 km/h
Temperature: 73°F , 23°C
Dew Point: 68°F , 20°C
Humidity: 83%
Barometer: 29.91 inHg , 1012.9 hPa
Summary: Thunderstorm, Light rain
Clouds: Overcast
Visibility: 7 miles , 11 km
Cloud details: Mostly cloudy 4000 ft
Overcast 6000 ft
2019/05/20 01:00 KSWF 200100Z 26014G24KT 7SM TS -RA BKN040 OVC060 23/20 A2991 RMK OCNL LTGIC DSNT TS OVH MOV E
KBAF - Westfield, Massachusetts, USA
Distance from station: NNE 50mi, 80km
Updated: Sun, 19-May-2019 8:53pm EDT
Overcast
Overcast
 Wind from S
Wind: S 9 mph , 15 km/h
Temperature: 70°F , 21°C
Dew Point: 64°F , 18°C
Humidity: 83%
Barometer: 29.90 inHg , 1012.5 hPa
Clouds: Overcast
Visibility: 10 miles , 16 km
Cloud details: Overcast 1300 ft
2019/05/20 00:53 KBAF 200053Z 18008KT 10SM OVC013 21/18 A2990 RMK AO2 SLP126 T02060178